Time;durP1;ratioP1;P1;durP2;ratioP2;P2;SDS_P1;SDS_P2;PMS_P1;PMS_P2;Temp;Humidity;BMP_temperature;BMP_pressure;BME280_temperature;BME280_humidity;BME280_pressure;Samples;Min_cycle;Max_cycle;Signal;HPM_P1;HPM_P2
2022/05/09 00:01:20;;;;;;;7.03;6.63;;;;;;;;;;5073331;28;20418;-60
2022/05/09 00:03:46;;;;;;;7.03;6.73;;;;;;;;;;5073288;28;20469;-60
2022/05/09 00:06:12;;;;;;;6.90;6.30;;;;;;;;;;5073226;28;20878;-60
2022/05/09 00:08:42;;;;;;;6.73;6.40;;;;;;;;;;5073339;28;20390;-60
2022/05/09 00:11:08;;;;;;;7.03;6.63;;;;;;;;;;5073346;28;20481;-60
2022/05/09 00:13:34;;;;;;;10.90;7.47;;;;;;;;;;5073158;28;20405;-60
2022/05/09 00:16:00;;;;;;;7.20;6.80;;;;;;;;;;5074851;28;20406;-61
2022/05/09 00:18:26;;;;;;;6.87;6.40;;;;;;;;;;5077213;28;20483;-60
2022/05/09 00:20:52;;;;;;;7.70;6.87;;;;;;;;;;5077164;28;20409;-60
2022/05/09 00:23:21;;;;;;;8.23;7.60;;;;;;;;;;5077075;28;20535;-60
2022/05/09 00:25:47;;;;;;;9.13;6.30;;;;;;;;;;5077058;28;20535;-60
2022/05/09 00:28:13;;;;;;;6.57;6.27;;;;;;;;;;5076996;28;20877;-60
2022/05/09 00:30:39;;;;;;;7.63;7.03;;;;;;;;;;5077044;28;20501;-59
2022/05/09 00:33:05;;;;;;;8.87;7.03;;;;;;;;;;5076970;28;20413;-60
2022/05/09 00:35:31;;;;;;;6.70;6.40;;;;;;;;;;5076867;28;20408;-60
2022/05/09 00:37:59;;;;;;;7.70;7.07;;;;;;;;;;5076904;28;20492;-60
2022/05/09 00:40:25;;;;;;;7.63;7.30;;;;;;;;;;5076518;28;20549;-59
2022/05/09 00:42:53;;;;;;;7.50;6.90;;;;;;;;;;5076851;28;20497;-66
2022/05/09 00:45:20;;;;;;;7.73;7.27;;;;;;;;;;5077036;28;20781;-65
2022/05/09 00:47:47;;;;;;;8.37;7.63;;;;;;;;;;5076741;28;20433;-64
2022/05/09 00:50:16;;;;;;;7.97;7.47;;;;;;;;;;5076576;28;20765;-65
2022/05/09 00:52:43;;;;;;;12.13;7.77;;;;;;;;;;5076673;28;20759;-63
2022/05/09 00:55:14;;;;;;;8.20;7.70;;;;;;;;;;5076657;28;20402;-63
2022/05/09 00:57:50;;;;;;;7.03;6.73;;;;;;;;;;5076413;28;20413;-63
2022/05/09 01:00:18;;;;;;;7.83;7.40;;;;;;;;;;5076641;28;20504;-64
2022/05/09 01:02:50;;;;;;;7.60;7.20;;;;;;;;;;5076265;28;20769;-61
2022/05/09 01:05:17;;;;;;;9.30;7.50;;;;;;;;;;5076355;28;20470;-61
2022/05/09 01:07:43;;;;;;;8.47;7.63;;;;;;;;;;5076239;28;20417;-63
2022/05/09 01:10:10;;;;;;;7.10;6.70;;;;;;;;;;5076070;28;20782;-65
2022/05/09 01:12:37;;;;;;;8.13;7.50;;;;;;;;;;5076163;28;20410;-65
2022/05/09 01:15:06;;;;;;;7.53;7.17;;;;;;;;;;5076111;28;20459;-65
2022/05/09 01:17:34;;;;;;;8.00;7.60;;;;;;;;;;5076023;28;20412;-65
2022/05/09 01:20:01;;;;;;;7.50;7.20;;;;;;;;;;5076009;28;20892;-64
2022/05/09 01:22:28;;;;;;;8.77;7.97;;;;;;;;;;5076001;28;20406;-60
2022/05/09 01:24:56;;;;;;;8.27;7.60;;;;;;;;;;5075950;28;20402;-60
2022/05/09 01:27:22;;;;;;;7.20;6.80;;;;;;;;;;5075010;28;20456;-61
2022/05/09 01:30:01;;;;;;;7.90;7.13;;;;;;;;;;5075964;28;20402;-60
2022/05/09 01:32:31;;;;;;;8.60;6.80;;;;;;;;;;5075745;28;20461;-61
2022/05/09 01:35:00;;;;;;;8.40;7.80;;;;;;;;;;5075776;28;20398;-60
2022/05/09 01:37:28;;;;;;;7.47;7.17;;;;;;;;;;5075681;28;20494;-60
2022/05/09 01:39:57;;;;;;;10.40;7.57;;;;;;;;;;5075484;28;20894;-60
2022/05/09 01:42:23;;;;;;;8.03;7.60;;;;;;;;;;5075684;28;20406;-59
2022/05/09 01:44:49;;;;;;;7.17;6.87;;;;;;;;;;5075866;28;20497;-60
2022/05/09 01:50:00;;;;;;;8.47;7.77;;;;;;;;;;5075785;28;20432;-59
2022/05/09 01:52:26;;;;;;;8.10;7.40;;;;;;;;;;5075341;28;20461;-60
2022/05/09 01:54:53;;;;;;;7.60;7.20;;;;;;;;;;5075632;28;20440;-62
2022/05/09 01:57:19;;;;;;;8.10;7.60;;;;;;;;;;5075305;28;20417;-61
2022/05/09 01:59:45;;;;;;;7.77;7.17;;;;;;;;;;5075241;28;20417;-60
2022/05/09 02:02:13;;;;;;;7.80;7.40;;;;;;;;;;5075288;28;20489;-61
2022/05/09 02:04:43;;;;;;;7.40;7.00;;;;;;;;;;5075186;28;20406;-61
2022/05/09 02:07:13;;;;;;;7.73;7.30;;;;;;;;;;5075215;28;20461;-60
2022/05/09 02:09:40;;;;;;;8.10;7.60;;;;;;;;;;5075108;28;20434;-61
2022/05/09 02:12:06;;;;;;;8.00;7.40;;;;;;;;;;5075207;28;20473;-61
2022/05/09 02:14:32;;;;;;;8.63;7.90;;;;;;;;;;5075054;28;20406;-59
2022/05/09 02:16:58;;;;;;;7.87;7.27;;;;;;;;;;5075273;28;20483;-60
2022/05/09 02:19:25;;;;;;;9.17;8.37;;;;;;;;;;5074927;28;20820;-60
2022/05/09 02:21:51;;;;;;;9.70;8.90;;;;;;;;;;5074857;28;20418;-60
2022/05/09 02:24:17;;;;;;;9.03;8.40;;;;;;;;;;5074819;28;20973;-60
2022/05/09 02:26:43;;;;;;;8.37;7.97;;;;;;;;;;5074727;28;20432;-61
2022/05/09 02:29:10;;;;;;;8.97;8.23;;;;;;;;;;5074668;28;20489;-59
2022/05/09 02:31:36;;;;;;;9.47;8.90;;;;;;;;;;5074604;28;20469;-59
2022/05/09 02:34:02;;;;;;;9.20;8.60;;;;;;;;;;5074598;28;20451;-60
2022/05/09 02:36:28;;;;;;;8.40;7.90;;;;;;;;;;5074839;28;20467;-59
2022/05/09 02:38:54;;;;;;;9.17;8.50;;;;;;;;;;5074754;28;20493;-60
2022/05/09 02:41:22;;;;;;;8.10;7.57;;;;;;;;;;5074395;28;21040;-60
2022/05/09 02:43:48;;;;;;;8.40;7.87;;;;;;;;;;5074394;28;20409;-59
2022/05/09 02:46:14;;;;;;;8.60;7.90;;;;;;;;;;5074395;28;20418;-60
2022/05/09 02:48:40;;;;;;;8.60;8.10;;;;;;;;;;5074332;28;20403;-63
2022/05/09 02:51:08;;;;;;;8.97;8.47;;;;;;;;;;5074210;28;20518;-60
2022/05/09 02:53:34;;;;;;;8.33;7.87;;;;;;;;;;5074429;28;20398;-59
2022/05/09 02:56:00;;;;;;;8.37;7.93;;;;;;;;;;5074410;28;20414;-61
2022/05/09 02:58:26;;;;;;;9.57;8.87;;;;;;;;;;5074203;28;20394;-59
2022/05/09 03:00:52;;;;;;;9.83;9.13;;;;;;;;;;5074128;28;20418;-60
2022/05/09 03:06:02;;;;;;;8.87;8.30;;;;;;;;;;5074038;28;20389;-60
2022/05/09 03:08:29;;;;;;;11.10;10.20;;;;;;;;;;5073987;28;20501;-60
2022/05/09 03:10:56;;;;;;;16.60;11.03;;;;;;;;;;5073764;28;20490;-60
2022/05/09 03:13:22;;;;;;;14.63;11.87;;;;;;;;;;5074023;28;20410;-60
2022/05/09 03:15:49;;;;;;;11.20;10.20;;;;;;;;;;5074174;28;20405;-59
2022/05/09 03:18:17;;;;;;;12.00;10.80;;;;;;;;;;5073868;28;20406;-60
2022/05/09 03:20:43;;;;;;;12.87;11.23;;;;;;;;;;5074065;28;20394;-60
2022/05/09 03:23:10;;;;;;;9.33;8.53;;;;;;;;;;5073980;28;20464;-60
2022/05/09 03:25:37;;;;;;;9.67;8.87;;;;;;;;;;5073996;28;20468;-60
2022/05/09 03:28:08;;;;;;;9.30;8.33;;;;;;;;;;5073709;28;20754;-60
2022/05/09 03:30:34;;;;;;;8.60;8.20;;;;;;;;;;5073645;28;20450;-59
2022/05/09 03:33:00;;;;;;;8.83;8.03;;;;;;;;;;5073683;28;20421;-59
2022/05/09 03:35:26;;;;;;;9.37;8.70;;;;;;;;;;5073670;28;20493;-59
2022/05/09 03:37:53;;;;;;;9.63;8.87;;;;;;;;;;5073810;28;20410;-59
2022/05/09 03:40:20;;;;;;;9.57;8.77;;;;;;;;;;5073502;28;20491;-59
2022/05/09 03:42:47;;;;;;;9.63;8.83;;;;;;;;;;5073776;28;20463;-60
2022/05/09 03:45:13;;;;;;;10.30;9.57;;;;;;;;;;5073503;28;20406;-60
2022/05/09 03:47:42;;;;;;;10.17;9.47;;;;;;;;;;5073423;28;20441;-61
2022/05/09 03:50:09;;;;;;;10.03;9.40;;;;;;;;;;5072987;28;20402;-60
2022/05/09 03:52:35;;;;;;;14.23;12.87;;;;;;;;;;5073421;28;20897;-60
2022/05/09 03:55:01;;;;;;;10.63;9.93;;;;;;;;;;5073431;28;20767;-59
2022/05/09 03:57:27;;;;;;;9.43;8.93;;;;;;;;;;5072087;28;20422;-60
2022/05/09 03:59:53;;;;;;;10.17;9.53;;;;;;;;;;5073389;28;20414;-61
2022/05/09 04:02:19;;;;;;;13.73;10.00;;;;;;;;;;5073279;28;20915;-60
2022/05/09 04:04:44;;;;;;;9.97;9.13;;;;;;;;;;5073277;28;20467;-60
2022/05/09 04:07:10;;;;;;;11.07;9.83;;;;;;;;;;5073312;28;20916;-60
2022/05/09 04:09:36;;;;;;;11.00;10.00;;;;;;;;;;5073263;28;20511;-59
2022/05/09 04:12:03;;;;;;;17.27;15.33;;;;;;;;;;5073026;28;20480;-60
2022/05/09 04:17:16;;;;;;;12.47;11.40;;;;;;;;;;5073430;28;20393;-59
2022/05/09 04:19:42;;;;;;;11.10;10.10;;;;;;;;;;5073114;28;20460;-60
2022/05/09 04:22:08;;;;;;;11.57;10.17;;;;;;;;;;5073438;28;20804;-60
2022/05/09 04:24:35;;;;;;;10.83;9.67;;;;;;;;;;5073154;28;20454;-59
2022/05/09 04:27:01;;;;;;;11.07;10.03;;;;;;;;;;5073061;28;20409;-59
2022/05/09 04:29:27;;;;;;;14.27;13.00;;;;;;;;;;5073297;28;20468;-59
2022/05/09 04:31:53;;;;;;;11.27;10.07;;;;;;;;;;5072914;28;20543;-59
2022/05/09 04:34:19;;;;;;;10.17;9.47;;;;;;;;;;5072957;28;20403;-60
2022/05/09 04:36:46;;;;;;;10.70;9.83;;;;;;;;;;5073054;28;20409;-60
2022/05/09 04:39:12;;;;;;;12.50;11.40;;;;;;;;;;5072958;28;20913;-60
2022/05/09 04:41:38;;;;;;;10.43;9.73;;;;;;;;;;5072713;28;20484;-61
2022/05/09 04:44:05;;;;;;;12.13;11.23;;;;;;;;;;5072906;28;20406;-60
2022/05/09 04:46:31;;;;;;;10.47;9.77;;;;;;;;;;5073159;28;20411;-61
2022/05/09 04:48:57;;;;;;;11.53;10.73;;;;;;;;;;5072891;28;20410;-60
2022/05/09 04:51:23;;;;;;;11.77;10.83;;;;;;;;;;5072745;28;21079;-60
2022/05/09 04:53:49;;;;;;;13.17;11.80;;;;;;;;;;5072849;28;20416;-63
2022/05/09 04:56:16;;;;;;;17.57;12.23;;;;;;;;;;5072800;28;20424;-62
2022/05/09 04:58:42;;;;;;;16.43;13.80;;;;;;;;;;5072854;28;20407;-61
2022/05/09 05:01:08;;;;;;;14.77;13.63;;;;;;;;;;5072779;28;20405;-60
2022/05/09 05:03:34;;;;;;;15.50;14.20;;;;;;;;;;5075011;28;20961;-60
2022/05/09 05:06:00;;;;;;;14.23;13.03;;;;;;;;;;5075041;28;20461;-60
2022/05/09 05:08:30;;;;;;;21.10;13.57;;;;;;;;;;5076420;28;20471;-60
2022/05/09 05:10:56;;;;;;;14.90;13.60;;;;;;;;;;5076464;28;20457;-60
2022/05/09 05:13:23;;;;;;;14.20;12.90;;;;;;;;;;5076278;28;20413;-59
2022/05/09 05:15:48;;;;;;;14.43;13.27;;;;;;;;;;5076475;28;20471;-59
2022/05/09 05:18:19;;;;;;;14.07;12.57;;;;;;;;;;5076167;28;20885;-60
2022/05/09 05:20:45;;;;;;;16.03;14.60;;;;;;;;;;5076140;28;20394;-60
2022/05/09 05:23:11;;;;;;;15.20;13.80;;;;;;;;;;5075995;28;20455;-60
2022/05/09 05:25:40;;;;;;;16.00;14.50;;;;;;;;;;5075997;28;20471;-60
2022/05/09 05:28:07;;;;;;;14.67;13.17;;;;;;;;;;5075800;28;20399;-60
2022/05/09 05:30:35;;;;;;;16.27;13.30;;;;;;;;;;5075654;28;20406;-60
2022/05/09 05:33:02;;;;;;;14.57;13.37;;;;;;;;;;5075805;28;20411;-59
2022/05/09 05:35:28;;;;;;;14.90;13.50;;;;;;;;;;5075968;28;20395;-65
2022/05/09 05:37:54;;;;;;;16.93;15.23;;;;;;;;;;5075711;28;20860;-59
2022/05/09 05:40:20;;;;;;;17.67;15.70;;;;;;;;;;5075327;28;20464;-59
2022/05/09 05:42:47;;;;;;;22.43;17.73;;;;;;;;;;5075598;28;20786;-59
2022/05/09 05:45:14;;;;;;;19.50;17.60;;;;;;;;;;5075603;28;20442;-59
2022/05/09 05:47:40;;;;;;;18.23;16.53;;;;;;;;;;5075581;28;20414;-60
2022/05/09 05:50:08;;;;;;;19.00;17.20;;;;;;;;;;5075549;28;20803;-60
2022/05/09 05:52:34;;;;;;;18.70;17.10;;;;;;;;;;5075626;28;20472;-59
2022/05/09 05:55:00;;;;;;;19.27;17.47;;;;;;;;;;5075661;28;20403;-60
2022/05/09 05:57:30;;;;;;;20.63;18.80;;;;;;;;;;5075330;28;20425;-60
2022/05/09 06:00:02;;;;;;;18.53;16.73;;;;;;;;;;5075571;28;20406;-60
2022/05/09 06:02:29;;;;;;;22.10;19.07;;;;;;;;;;5075517;28;20481;-60
2022/05/09 06:04:55;;;;;;;19.57;17.67;;;;;;;;;;5075143;28;20460;-59
2022/05/09 06:07:22;;;;;;;20.93;17.97;;;;;;;;;;5075213;28;20406;-60
2022/05/09 06:09:49;;;;;;;21.50;18.07;;;;;;;;;;5073823;28;20440;-65
2022/05/09 06:12:16;;;;;;;23.40;18.40;;;;;;;;;;5074993;28;20470;-65
2022/05/09 06:14:42;;;;;;;28.33;18.90;;;;;;;;;;5074862;28;20398;-66
2022/05/09 06:17:10;;;;;;;20.13;18.00;;;;;;;;;;5075210;28;20402;-69
2022/05/09 06:19:37;;;;;;;19.73;17.73;;;;;;;;;;5075056;28;20433;-67
2022/05/09 06:22:03;;;;;;;18.43;16.70;;;;;;;;;;5075136;28;20410;-64
2022/05/09 06:24:29;;;;;;;19.50;16.83;;;;;;;;;;5074865;28;20404;-70
2022/05/09 06:26:55;;;;;;;19.83;17.73;;;;;;;;;;5073442;28;20438;-71
2022/05/09 06:29:22;;;;;;;17.80;16.30;;;;;;;;;;5074629;28;20414;-70
2022/05/09 06:31:47;;;;;;;17.67;15.90;;;;;;;;;;5074625;28;20969;-69
2022/05/09 06:34:14;;;;;;;19.93;17.20;;;;;;;;;;5074572;28;20394;-71
2022/05/09 06:36:41;;;;;;;18.30;16.60;;;;;;;;;;5074555;28;20410;-71
2022/05/09 06:39:08;;;;;;;18.07;16.30;;;;;;;;;;5074638;28;20402;-70
2022/05/09 06:41:34;;;;;;;17.70;15.93;;;;;;;;;;5074238;28;20504;-70
2022/05/09 06:44:00;;;;;;;22.10;15.97;;;;;;;;;;5074495;28;20410;-69
2022/05/09 06:46:26;;;;;;;18.70;16.10;;;;;;;;;;5074252;28;20410;-70
2022/05/09 06:48:52;;;;;;;17.37;15.73;;;;;;;;;;5074384;28;20815;-69
2022/05/09 06:51:19;;;;;;;17.20;15.37;;;;;;;;;;5074235;28;20470;-68
2022/05/09 06:53:45;;;;;;;17.03;15.40;;;;;;;;;;5074421;28;20489;-70
2022/05/09 06:56:11;;;;;;;16.63;15.00;;;;;;;;;;5074121;28;20473;-72
2022/05/09 06:58:37;;;;;;;18.90;15.33;;;;;;;;;;5074273;28;20768;-73
2022/05/09 07:01:13;;;;;;;18.03;15.90;;;;;;;;;;5074172;28;20416;-72
2022/05/09 07:03:39;;;;;;;16.87;15.13;;;;;;;;;;5074291;28;20407;-73
2022/05/09 07:06:05;;;;;;;17.03;14.77;;;;;;;;;;5074088;28;20461;-72
2022/05/09 07:08:32;;;;;;;16.50;14.90;;;;;;;;;;5074024;28;20398;-73
2022/05/09 07:10:58;;;;;;;14.73;13.40;;;;;;;;;;5074045;28;20462;-69
2022/05/09 07:13:24;;;;;;;14.30;13.10;;;;;;;;;;5072610;28;20469;-69
2022/05/09 07:15:50;;;;;;;15.90;14.40;;;;;;;;;;5073882;28;20485;-71
2022/05/09 07:18:16;;;;;;;15.20;13.87;;;;;;;;;;5073838;28;20417;-71
2022/05/09 07:20:42;;;;;;;16.10;14.50;;;;;;;;;;5073911;28;20401;-71
2022/05/09 07:23:10;;;;;;;15.87;14.40;;;;;;;;;;5073755;28;20771;-70
2022/05/09 07:25:36;;;;;;;15.60;14.00;;;;;;;;;;5073244;28;20427;-71
2022/05/09 07:28:02;;;;;;;14.33;12.87;;;;;;;;;;5073627;28;20520;-70
2022/05/09 07:30:28;;;;;;;18.53;13.37;;;;;;;;;;5073625;28;20851;-72
2022/05/09 07:32:55;;;;;;;15.47;13.70;;;;;;;;;;5073926;28;20527;-71
2022/05/09 07:35:21;;;;;;;16.07;14.57;;;;;;;;;;5073630;28;20401;-71
2022/05/09 07:37:47;;;;;;;15.17;13.63;;;;;;;;;;5073561;28;20420;-72
2022/05/09 07:40:15;;;;;;;14.80;13.37;;;;;;;;;;5073483;28;20486;-70
2022/05/09 07:42:41;;;;;;;15.63;14.17;;;;;;;;;;5073782;28;20409;-72
2022/05/09 07:45:09;;;;;;;15.20;13.90;;;;;;;;;;5073509;28;20409;-71
2022/05/09 07:47:35;;;;;;;16.07;14.70;;;;;;;;;;5073713;28;20873;-72
2022/05/09 07:50:01;;;;;;;14.97;13.63;;;;;;;;;;5073508;28;20509;-71
2022/05/09 07:52:27;;;;;;;14.57;13.37;;;;;;;;;;5073340;28;20477;-69
2022/05/09 07:54:53;;;;;;;16.20;12.60;;;;;;;;;;5073353;28;20742;-71
2022/05/09 07:57:19;;;;;;;13.53;12.40;;;;;;;;;;5073339;28;20426;-71
2022/05/09 07:59:45;;;;;;;14.17;12.80;;;;;;;;;;5073314;28;20409;-71
2022/05/09 08:02:11;;;;;;;14.47;12.77;;;;;;;;;;5073382;28;20409;-71
2022/05/09 08:04:37;;;;;;;13.07;11.97;;;;;;;;;;5073344;28;20403;-72
2022/05/09 08:07:03;;;;;;;15.37;11.17;;;;;;;;;;5073329;28;20409;-72
2022/05/09 08:09:29;;;;;;;12.97;11.60;;;;;;;;;;5073285;28;20463;-71
2022/05/09 08:11:57;;;;;;;12.43;11.43;;;;;;;;;;5073094;28;20470;-71
2022/05/09 08:14:23;;;;;;;10.33;9.70;;;;;;;;;;5073230;28;20410;-71
2022/05/09 08:16:49;;;;;;;12.83;11.53;;;;;;;;;;5073188;28;20422;-72
2022/05/09 08:19:15;;;;;;;14.53;11.10;;;;;;;;;;5073182;28;20778;-72
2022/05/09 08:21:42;;;;;;;11.53;10.27;;;;;;;;;;5071923;28;20523;-71
2022/05/09 08:24:08;;;;;;;11.30;10.40;;;;;;;;;;5072997;28;20464;-69
2022/05/09 08:26:34;;;;;;;11.43;10.60;;;;;;;;;;5073015;28;20446;-71
2022/05/09 08:29:00;;;;;;;10.27;9.67;;;;;;;;;;5073065;28;20878;-70
2022/05/09 08:31:26;;;;;;;10.37;9.57;;;;;;;;;;5071678;28;20475;-70
2022/05/09 08:33:53;;;;;;;10.13;9.40;;;;;;;;;;5073332;28;20849;-70
2022/05/09 08:39:05;;;;;;;9.57;8.87;;;;;;;;;;5076849;28;20394;-68
2022/05/09 08:41:36;;;;;;;10.13;9.43;;;;;;;;;;5076661;28;20589;-68
2022/05/09 08:44:21;;;;;;;9.70;9.10;;;;;;;;;;5076721;28;20399;-70
2022/05/09 08:46:52;;;;;;;9.97;8.90;;;;;;;;;;5076680;28;20404;-69
2022/05/09 08:49:18;;;;;;;9.70;9.00;;;;;;;;;;5076666;28;20401;-69
2022/05/09 08:51:47;;;;;;;10.60;9.67;;;;;;;;;;5076590;28;20521;-68
2022/05/09 08:54:18;;;;;;;10.90;9.30;;;;;;;;;;5076513;28;20400;-69
2022/05/09 08:56:46;;;;;;;9.97;9.17;;;;;;;;;;5076515;28;20428;-69
2022/05/09 08:59:13;;;;;;;9.50;8.90;;;;;;;;;;5076797;28;20397;-67
2022/05/09 09:01:50;;;;;;;8.43;7.83;;;;;;;;;;5076571;28;20421;-68
2022/05/09 09:04:24;;;;;;;9.90;9.00;;;;;;;;;;5075111;28;20780;-68
2022/05/09 09:07:01;;;;;;;9.20;8.47;;;;;;;;;;5076333;28;20416;-67
2022/05/09 09:09:27;;;;;;;8.57;7.83;;;;;;;;;;5076337;28;20450;-67
2022/05/09 09:12:08;;;;;;;9.47;8.67;;;;;;;;;;5076076;28;20515;-68
2022/05/09 09:14:34;;;;;;;8.07;7.50;;;;;;;;;;5076270;28;20898;-68
2022/05/09 09:17:00;;;;;;;8.63;7.93;;;;;;;;;;5076248;28;20414;-68
2022/05/09 09:19:55;;;;;;;8.80;8.13;;;;;;;;;;5076130;28;20405;-68
2022/05/09 09:22:40;;;;;;;7.50;7.10;;;;;;;;;;5075669;28;20437;-65
2022/05/09 09:25:06;;;;;;;8.70;8.00;;;;;;;;;;5074710;28;20412;-69
2022/05/09 09:27:36;;;;;;;8.37;7.67;;;;;;;;;;5075938;28;20476;-68
2022/05/09 09:30:10;;;;;;;7.33;6.83;;;;;;;;;;5076171;28;20410;-67
2022/05/09 09:32:39;;;;;;;8.10;7.60;;;;;;;;;;5075762;28;20469;-67
2022/05/09 09:35:09;;;;;;;7.70;7.23;;;;;;;;;;5075806;28;20426;-66
2022/05/09 09:37:38;;;;;;;7.10;6.47;;;;;;;;;;5076018;28;20406;-67
2022/05/09 09:40:05;;;;;;;7.50;6.80;;;;;;;;;;5074277;28;20458;-67
2022/05/09 09:42:31;;;;;;;8.40;7.10;;;;;;;;;;5075536;28;20472;-67
2022/05/09 09:45:00;;;;;;;8.07;6.43;;;;;;;;;;5075730;28;20444;-67
2022/05/09 09:47:27;;;;;;;6.40;6.00;;;;;;;;;;5075658;28;20494;-66
2022/05/09 09:50:15;;;;;;;6.50;6.13;;;;;;;;;;5074943;28;20432;-67
2022/05/09 09:52:49;;;;;;;6.13;5.90;;;;;;;;;;5075440;28;20469;-66
2022/05/09 09:55:21;;;;;;;9.73;6.63;;;;;;;;;;5075364;28;20413;-67
2022/05/09 09:57:48;;;;;;;6.70;6.10;;;;;;;;;;5075281;28;20454;-66
2022/05/09 10:00:14;;;;;;;6.77;6.23;;;;;;;;;;5075547;28;20459;-69
2022/05/09 10:02:40;;;;;;;6.17;5.87;;;;;;;;;;5075346;28;20413;-67
2022/05/09 10:05:11;;;;;;;6.27;5.97;;;;;;;;;;5075269;28;20405;-67
2022/05/09 10:07:39;;;;;;;7.53;6.83;;;;;;;;;;5075211;28;20404;-66
2022/05/09 10:10:10;;;;;;;6.70;6.20;;;;;;;;;;5075150;28;20878;-67
2022/05/09 10:12:37;;;;;;;6.63;6.43;;;;;;;;;;5075001;28;20479;-68
2022/05/09 10:15:19;;;;;;;7.00;6.40;;;;;;;;;;5075099;28;20416;-66
2022/05/09 10:17:45;;;;;;;7.07;6.77;;;;;;;;;;5075017;28;20884;-66
2022/05/09 10:20:27;;;;;;;7.17;6.67;;;;;;;;;;5075016;28;20413;-67
2022/05/09 10:25:55;;;;;;;7.40;6.90;;;;;;;;;;5075036;28;20786;-67
2022/05/09 10:28:22;;;;;;;7.33;6.93;;;;;;;;;;5075093;28;20478;-67
2022/05/09 10:30:50;;;;;;;7.83;6.60;;;;;;;;;;5074618;28;20820;-68
2022/05/09 10:33:33;;;;;;;5.97;5.67;;;;;;;;;;5074616;28;20424;-67
2022/05/09 10:36:02;;;;;;;6.23;5.90;;;;;;;;;;5074961;28;20455;-67
2022/05/09 10:38:47;;;;;;;6.93;6.33;;;;;;;;;;5074618;28;20401;-66
2022/05/09 10:41:22;;;;;;;11.43;6.57;;;;;;;;;;5074338;28;20469;-67
2022/05/09 10:43:51;;;;;;;7.10;6.80;;;;;;;;;;5074425;28;20416;-66
2022/05/09 10:46:18;;;;;;;7.63;6.83;;;;;;;;;;5074415;28;20424;-67
2022/05/09 10:48:48;;;;;;;6.23;5.93;;;;;;;;;;5074368;28;20502;-67
2022/05/09 10:51:25;;;;;;;6.60;6.30;;;;;;;;;;5073007;28;20452;-67
2022/05/09 10:53:58;;;;;;;7.07;6.70;;;;;;;;;;5074591;28;20415;-67
2022/05/09 10:56:24;;;;;;;6.37;6.07;;;;;;;;;;5074216;28;20438;-66
2022/05/09 10:59:04;;;;;;;7.63;6.80;;;;;;;;;;5074457;28;20444;-68
2022/05/09 11:01:30;;;;;;;6.80;6.40;;;;;;;;;;5073185;28;20416;-68
2022/05/09 11:03:56;;;;;;;6.50;6.10;;;;;;;;;;5074127;28;20414;-67
2022/05/09 11:06:28;;;;;;;6.53;6.07;;;;;;;;;;5072744;28;20932;-68
2022/05/09 11:09:07;;;;;;;6.67;6.23;;;;;;;;;;5073910;28;20865;-67
2022/05/09 11:11:51;;;;;;;6.23;5.73;;;;;;;;;;5073844;28;20511;-67
2022/05/09 11:14:27;;;;;;;8.77;5.80;;;;;;;;;;5073827;28;20428;-68
2022/05/09 11:16:56;;;;;;;7.97;6.23;;;;;;;;;;5074022;28;20432;-67
2022/05/09 11:19:40;;;;;;;5.80;5.50;;;;;;;;;;5073816;28;20405;-67
2022/05/09 11:22:18;;;;;;;6.47;6.07;;;;;;;;;;5073769;28;20485;-66
2022/05/09 11:24:58;;;;;;;7.33;6.67;;;;;;;;;;5073756;28;20406;-68
2022/05/09 11:27:26;;;;;;;5.93;5.73;;;;;;;;;;5073648;28;20411;-68
2022/05/09 11:30:08;;;;;;;11.00;6.20;;;;;;;;;;5072370;28;20422;-69
2022/05/09 11:32:41;;;;;;;6.50;6.10;;;;;;;;;;5073540;28;20937;-68
2022/05/09 11:35:09;;;;;;;6.63;6.33;;;;;;;;;;5073512;28;20403;-69
2022/05/09 11:37:44;;;;;;;6.60;6.10;;;;;;;;;;5073631;28;20443;-70
2022/05/09 11:40:26;;;;;;;6.37;6.03;;;;;;;;;;5073372;28;20495;-67
2022/05/09 11:43:30;;;;;;;7.00;6.00;;;;;;;;;;5072627;28;20813;-67
2022/05/09 11:45:59;;;;;;;6.57;6.17;;;;;;;;;;5073775;28;20871;-68
2022/05/09 11:48:40;;;;;;;6.00;5.80;;;;;;;;;;5073464;28;20402;-68
2022/05/09 11:51:18;;;;;;;5.93;5.73;;;;;;;;;;5073415;28;20533;-68
2022/05/09 11:53:47;;;;;;;6.77;6.20;;;;;;;;;;5073484;28;20410;-69
2022/05/09 11:56:13;;;;;;;6.70;6.20;;;;;;;;;;5073329;28;20419;-69
2022/05/09 11:58:41;;;;;;;6.47;6.27;;;;;;;;;;5073320;28;20399;-69
2022/05/09 12:01:07;;;;;;;6.37;5.90;;;;;;;;;;5071955;28;20429;-70
2022/05/09 12:03:39;;;;;;;6.03;5.53;;;;;;;;;;5073271;28;20490;-69
2022/05/09 12:06:06;;;;;;;6.20;5.70;;;;;;;;;;5073255;28;20404;-69
2022/05/09 12:08:45;;;;;;;6.30;5.93;;;;;;;;;;5073221;28;20463;-68
2022/05/09 12:11:24;;;;;;;6.47;5.90;;;;;;;;;;5072051;28;21007;-69
2022/05/09 12:13:51;;;;;;;5.07;4.87;;;;;;;;;;5077188;28;20525;-65
2022/05/09 12:16:35;;;;;;;6.33;6.00;;;;;;;;;;5077547;28;20420;-66
2022/05/09 12:19:03;;;;;;;5.70;5.40;;;;;;;;;;5077249;28;20764;-69
2022/05/09 12:21:34;;;;;;;5.60;5.20;;;;;;;;;;5077254;28;20889;-69
2022/05/09 12:24:11;;;;;;;5.40;5.20;;;;;;;;;;5077137;28;20405;-68
2022/05/09 12:26:38;;;;;;;5.83;5.63;;;;;;;;;;5076940;28;20414;-67
2022/05/09 12:29:15;;;;;;;5.97;5.70;;;;;;;;;;5077050;28;20484;-66
2022/05/09 12:31:44;;;;;;;5.37;5.27;;;;;;;;;;5076934;28;20465;-69
2022/05/09 12:34:14;;;;;;;5.60;5.00;;;;;;;;;;5077064;28;20873;-70
2022/05/09 12:36:40;;;;;;;5.60;5.40;;;;;;;;;;5076946;28;20409;-68
2022/05/09 12:39:10;;;;;;;5.13;4.90;;;;;;;;;;5076903;28;20491;-70
2022/05/09 12:41:41;;;;;;;5.87;5.43;;;;;;;;;;5076557;28;20475;-69
2022/05/09 12:44:07;;;;;;;5.07;4.87;;;;;;;;;;5076910;28;20398;-67
2022/05/09 12:46:36;;;;;;;4.90;4.80;;;;;;;;;;5075535;28;20915;-68
2022/05/09 12:49:05;;;;;;;6.67;6.10;;;;;;;;;;5076976;28;20397;-67
2022/05/09 12:51:32;;;;;;;5.03;4.93;;;;;;;;;;5075315;28;20460;-66
2022/05/09 12:53:59;;;;;;;4.83;4.63;;;;;;;;;;5076637;28;20421;-67
2022/05/09 12:56:27;;;;;;;4.73;4.47;;;;;;;;;;5076455;28;20420;-67
2022/05/09 12:59:06;;;;;;;4.97;4.77;;;;;;;;;;5076852;28;20416;-66
2022/05/09 13:01:33;;;;;;;6.17;4.80;;;;;;;;;;5076639;28;20509;-68
2022/05/09 13:04:04;;;;;;;5.47;5.27;;;;;;;;;;5076532;28;20414;-66
2022/05/09 13:06:45;;;;;;;12.43;5.90;;;;;;;;;;5076402;28;20402;-67
2022/05/09 13:09:15;;;;;;;4.70;4.60;;;;;;;;;;5076539;28;20469;-68
2022/05/09 13:11:42;;;;;;;5.23;5.10;;;;;;;;;;5074952;28;20555;-68
2022/05/09 13:14:08;;;;;;;5.43;5.23;;;;;;;;;;5076399;28;20390;-66
2022/05/09 13:16:39;;;;;;;5.33;4.97;;;;;;;;;;5076271;28;20917;-70
2022/05/09 13:19:05;;;;;;;5.00;4.80;;;;;;;;;;5076209;28;20181;-67
2022/05/09 13:21:34;;;;;;;7.43;5.00;;;;;;;;;;5076145;28;20406;-69
2022/05/09 13:24:03;;;;;;;4.93;4.73;;;;;;;;;;5074890;28;20904;-68
2022/05/09 13:26:29;;;;;;;4.37;4.27;;;;;;;;;;5076019;28;20411;-68
2022/05/09 13:28:57;;;;;;;3.97;3.87;;;;;;;;;;5075945;28;20451;-69
2022/05/09 13:31:29;;;;;;;6.97;4.50;;;;;;;;;;5075769;28;20476;-67
2022/05/09 13:33:55;;;;;;;5.90;4.57;;;;;;;;;;5075913;28;20507;-68
2022/05/09 13:36:25;;;;;;;5.50;5.23;;;;;;;;;;5075864;28;20425;-68
2022/05/09 13:38:52;;;;;;;5.47;5.00;;;;;;;;;;5075965;28;20503;-66
2022/05/09 13:41:24;;;;;;;7.80;4.83;;;;;;;;;;5075593;28;21078;-68
2022/05/09 13:43:51;;;;;;;5.20;4.80;;;;;;;;;;5075845;28;20410;-70
2022/05/09 13:46:17;;;;;;;5.20;4.70;;;;;;;;;;5075795;28;20407;-67
2022/05/09 13:48:44;;;;;;;5.00;4.73;;;;;;;;;;5075622;28;20740;-68
2022/05/09 13:51:10;;;;;;;4.53;4.10;;;;;;;;;;5075379;28;20799;-71
2022/05/09 13:53:38;;;;;;;4.13;4.03;;;;;;;;;;5075428;28;20909;-66
2022/05/09 13:56:08;;;;;;;4.10;4.00;;;;;;;;;;5075443;28;20408;-67
2022/05/09 13:58:35;;;;;;;4.20;3.83;;;;;;;;;;5075449;28;20404;-67
2022/05/09 14:01:02;;;;;;;5.07;4.87;;;;;;;;;;5074122;28;20431;-68
2022/05/09 14:03:28;;;;;;;4.93;4.73;;;;;;;;;;5075328;28;20476;-67
2022/05/09 14:05:55;;;;;;;4.93;4.77;;;;;;;;;;5075261;28;20899;-68
2022/05/09 14:08:22;;;;;;;5.50;5.10;;;;;;;;;;5075481;28;20491;-70
2022/05/09 14:10:49;;;;;;;4.30;4.10;;;;;;;;;;5075319;28;20503;-70
2022/05/09 14:13:33;;;;;;;4.07;3.97;;;;;;;;;;5073904;28;20766;-68
2022/05/09 14:16:02;;;;;;;4.23;4.13;;;;;;;;;;5075012;28;20454;-68
2022/05/09 14:18:30;;;;;;;4.43;4.13;;;;;;;;;;5075029;28;20424;-70
2022/05/09 14:21:17;;;;;;;4.00;3.90;;;;;;;;;;5074971;28;20417;-68
2022/05/09 14:23:47;;;;;;;4.30;4.20;;;;;;;;;;5073668;28;20418;-69
2022/05/09 14:31:56;;;;;;;4.73;4.30;;;;;;;;;;5074757;28;20832;-69
2022/05/09 14:34:25;;;;;;;4.10;4.00;;;;;;;;;;5074505;28;20406;-69
2022/05/09 14:37:32;;;;;;;4.73;4.63;;;;;;;;;;5074622;28;20429;-68
2022/05/09 14:40:14;;;;;;;4.10;3.90;;;;;;;;;;5072294;28;20480;-71
2022/05/09 14:42:55;;;;;;;4.23;4.00;;;;;;;;;;5072430;28;20433;-67
2022/05/09 14:45:26;;;;;;;3.77;3.67;;;;;;;;;;5074036;28;20491;-69
2022/05/09 14:47:57;;;;;;;4.60;4.50;;;;;;;;;;5073155;28;20432;-68
2022/05/09 14:50:29;;;;;;;4.50;4.30;;;;;;;;;;5074456;28;20772;-70
2022/05/09 14:53:00;;;;;;;4.30;4.00;;;;;;;;;;5074299;28;20465;-70
2022/05/09 14:58:20;;;;;;;4.63;4.53;;;;;;;;;;5074252;28;20447;-69
2022/05/09 15:00:51;;;;;;;4.50;4.30;;;;;;;;;;5074173;28;20406;-70
2022/05/09 15:03:19;;;;;;;6.73;4.30;;;;;;;;;;5074329;28;20412;-70
2022/05/09 15:05:45;;;;;;;4.00;3.70;;;;;;;;;;5072942;28;20765;-67